createdAt,value
2023-05-19T00:02:00.285Z,98594.75
2023-05-19T00:06:03.026Z,98589.91
2023-05-19T00:10:06.699Z,98590.69
2023-05-19T00:14:10.155Z,98583.88
2023-05-19T00:18:14.226Z,98582.53
2023-05-19T00:22:16.619Z,98585.75
2023-05-19T00:26:19.061Z,98579.91
2023-05-19T00:30:31.085Z,98582.94
2023-05-19T00:34:33.655Z,98578.81
2023-05-19T00:38:37.561Z,98570.94
2023-05-19T00:42:40.881Z,98574.91
2023-05-19T00:46:44.262Z,98564.78
2023-05-19T00:50:48.602Z,98561.00
2023-05-19T00:54:52.126Z,98565.22
2023-05-19T00:58:55.521Z,98564.19
2023-05-19T01:03:02.538Z,98566.88
2023-05-19T01:07:12.123Z,98565.38
2023-05-19T01:11:15.352Z,98556.44
2023-05-19T01:15:18.409Z,98569.03
2023-05-19T01:20:16.249Z,98570.13
2023-05-19T01:24:42.526Z,98572.53
2023-05-19T01:29:14.524Z,98569.41
2023-05-19T01:33:18.651Z,98565.56
2023-05-19T01:37:21.575Z,98574.13
2023-05-19T01:41:26.137Z,98576.09
2023-05-19T01:45:30.415Z,98564.91
2023-05-19T01:49:32.507Z,98567.13
2023-05-19T01:53:34.894Z,98565.63
2023-05-19T01:58:00.722Z,98572.34
2023-05-19T02:02:29.223Z,98573.72
2023-05-19T02:07:24.994Z,98570.53
2023-05-19T02:12:12.498Z,98574.06
2023-05-19T02:16:17.721Z,98569.59
2023-05-19T02:20:20.213Z,98577.34
2023-05-19T02:24:23.081Z,98575.34
2023-05-19T02:28:28.432Z,98585.97
2023-05-19T02:32:30.858Z,98592.81
2023-05-19T02:36:37.773Z,98592.31
2023-05-19T02:40:39.821Z,98592.84
2023-05-19T02:44:42.017Z,98593.13
2023-05-19T02:48:44.102Z,98589.66
2023-05-19T02:52:46.224Z,98598.50
2023-05-19T02:56:48.593Z,98597.47
2023-05-19T03:00:51.515Z,98594.38
2023-05-19T03:04:53.736Z,98590.13
2023-05-19T03:08:55.733Z,98585.84
2023-05-19T03:12:57.753Z,98585.16
2023-05-19T03:17:00.327Z,98584.81
2023-05-19T03:21:02.758Z,98584.59
2023-05-19T03:25:05.162Z,98575.09
2023-05-19T03:29:08.446Z,98573.03
2023-05-19T03:33:12.764Z,98571.22
2023-05-19T03:37:16.326Z,98576.59
2023-05-19T03:41:18.464Z,98579.75
2023-05-19T03:45:21.210Z,98568.97
2023-05-19T03:49:26.048Z,98569.97
2023-05-19T03:53:47.063Z,98568.63
2023-05-19T03:57:49.280Z,98564.69
2023-05-19T04:01:51.716Z,98568.59
2023-05-19T04:05:53.811Z,98571.06
2023-05-19T04:09:55.973Z,98567.31
2023-05-19T04:13:58.173Z,98572.13
2023-05-19T04:18:00.669Z,98577.47
2023-05-19T04:22:02.797Z,98578.31
2023-05-19T04:26:06.868Z,98580.63
2023-05-19T04:30:10.668Z,98584.66
2023-05-19T04:34:12.905Z,98584.88
2023-05-19T04:38:19.081Z,98582.97
2023-05-19T04:42:26.408Z,98584.84
2023-05-19T04:46:30.520Z,98586.41
2023-05-19T04:50:33.555Z,98580.72
2023-05-19T04:54:38.792Z,98571.78
2023-05-19T04:58:42.174Z,98565.63
2023-05-19T05:02:44.588Z,98562.69
2023-05-19T05:06:49.379Z,98569.91
2023-05-19T05:10:53.959Z,98566.41
2023-05-19T05:19:41.318Z,98549.81
2023-05-19T05:23:43.823Z,98555.56
2023-05-19T05:27:46.472Z,98556.69
2023-05-19T05:31:49.379Z,98555.25
2023-05-19T05:35:52.221Z,98554.84
2023-05-19T05:39:54.523Z,98545.69
2023-05-19T05:43:56.680Z,98548.81
2023-05-19T05:47:59.317Z,98556.72
2023-05-19T05:52:06.100Z,98547.91
2023-05-19T05:56:15.219Z,98555.94
2023-05-19T06:00:30.375Z,98556.03
2023-05-19T06:04:33.058Z,98561.28
2023-05-19T06:08:35.308Z,98567.34
2023-05-19T06:12:43.514Z,98572.41
2023-05-19T06:16:48.314Z,98579.75
2023-05-19T06:20:51.944Z,98578.59
2023-05-19T06:24:54.722Z,98580.78
2023-05-19T06:28:57.148Z,98580.53
2023-05-19T06:33:00.156Z,98579.69
2023-05-19T06:37:03.900Z,98582.44
2023-05-19T06:41:07.261Z,98581.53
2023-05-19T06:45:10.908Z,98575.13
2023-05-19T06:49:14.070Z,98573.53
2023-05-19T06:53:21.434Z,98572.50
2023-05-19T06:57:24.089Z,98570.44
2023-05-19T07:01:28.225Z,98564.81
2023-05-19T07:05:31.620Z,98564.22
2023-05-19T07:09:35.918Z,98566.25
2023-05-19T07:13:39.199Z,98562.47
2023-05-19T07:17:41.537Z,98566.66
2023-05-19T07:21:44.152Z,98565.84
2023-05-19T07:25:46.466Z,98560.88
2023-05-19T07:29:48.576Z,98558.69
2023-05-19T07:33:52.279Z,98563.97
2023-05-19T07:37:56.576Z,98567.75
2023-05-19T07:41:59.593Z,98560.44
2023-05-19T07:46:02.196Z,98568.84
2023-05-19T07:50:04.603Z,98569.47
2023-05-19T07:54:08.601Z,98565.75
2023-05-19T07:58:10.922Z,98554.28
2023-05-19T08:02:13.117Z,98552.81
2023-05-19T08:06:15.294Z,98551.53
2023-05-19T08:10:17.714Z,98553.69
2023-05-19T08:14:22.972Z,98557.41
2023-05-19T08:18:28.044Z,98565.75
2023-05-19T08:22:30.241Z,98559.78
2023-05-19T08:26:32.321Z,98547.09
2023-05-19T08:30:34.589Z,98561.66
2023-05-19T08:34:37.152Z,98562.16
2023-05-19T08:38:39.598Z,98571.00
2023-05-19T08:42:42.025Z,98568.88
2023-05-19T08:46:44.303Z,98571.97
2023-05-19T08:51:18.409Z,98573.44
2023-05-19T08:55:26.085Z,98578.66
2023-05-19T08:59:29.197Z,98583.81
2023-05-19T09:03:38.502Z,98579.69
2023-05-19T09:07:43.294Z,98587.34
2023-05-19T09:11:46.898Z,98583.16
2023-05-19T09:15:50.846Z,98596.91
2023-05-19T09:19:53.045Z,98591.91
2023-05-19T09:23:55.697Z,98590.28
2023-05-19T09:27:58.114Z,98587.94
2023-05-19T09:32:01.920Z,98587.88
2023-05-19T09:36:06.539Z,98584.47
2023-05-19T09:40:14.167Z,98576.91
2023-05-19T09:44:24.450Z,98581.22
2023-05-19T09:48:28.156Z,98574.00
2023-05-19T09:52:30.587Z,98578.00
2023-05-19T09:56:34.966Z,98576.41
2023-05-19T10:00:38.022Z,98576.50
2023-05-19T10:04:41.403Z,98579.97
2023-05-19T10:08:43.858Z,98587.50
2023-05-19T10:12:46.676Z,98596.00
2023-05-19T10:16:51.322Z,98598.50
2023-05-19T10:20:54.138Z,98598.50
2023-05-19T10:24:56.356Z,98591.13
2023-05-19T10:28:59.174Z,98587.56
2023-05-19T10:33:03.593Z,98589.91
2023-05-19T10:37:18.002Z,98578.28
2023-05-19T10:41:36.330Z,98580.47
2023-05-19T10:45:55.625Z,98574.38
2023-05-19T10:50:00.828Z,98571.59
2023-05-19T10:54:08.860Z,98572.22
2023-05-19T10:58:11.786Z,98567.44
2023-05-19T11:02:43.349Z,98566.25
2023-05-19T11:06:51.712Z,98567.88
2023-05-19T11:10:53.873Z,98566.75
2023-05-19T11:14:56.092Z,98562.88
2023-05-19T11:19:01.671Z,98567.16
2023-05-19T11:23:03.887Z,98564.28
2023-05-19T11:27:31.898Z,98562.75
2023-05-19T11:31:36.561Z,98560.13
2023-05-19T11:35:39.076Z,98566.50
2023-05-19T11:39:42.038Z,98556.56
2023-05-19T11:43:44.550Z,98568.38
2023-05-19T11:48:01.106Z,98569.97
2023-05-19T11:52:05.240Z,98553.78
2023-05-19T11:56:07.471Z,98557.63
2023-05-19T12:00:10.498Z,98559.25
2023-05-19T12:04:12.750Z,98554.03
2023-05-19T12:08:16.388Z,98556.34
2023-05-19T12:12:21.179Z,98563.16
2023-05-19T12:16:23.533Z,98565.44
2023-05-19T12:20:28.136Z,98568.72
2023-05-19T12:24:30.798Z,98551.06
2023-05-19T12:28:32.981Z,98548.31
2023-05-19T12:32:38.017Z,98551.25
2023-05-19T12:36:41.477Z,98547.38
2023-05-19T12:40:44.382Z,98551.97
2023-05-19T12:44:48.542Z,98547.69
2023-05-19T12:48:51.759Z,98544.09
2023-05-19T12:52:53.941Z,98542.53
2023-05-19T12:56:59.201Z,98521.34
2023-05-19T13:01:01.600Z,98512.31
2023-05-19T13:05:05.061Z,98515.94
2023-05-19T13:09:07.306Z,98498.41
2023-05-19T13:13:11.011Z,98501.09
2023-05-19T13:17:31.746Z,98492.19
2023-05-19T13:21:52.296Z,98485.19
2023-05-19T13:25:54.503Z,98469.47
2023-05-19T13:29:56.701Z,98465.31
2023-05-19T13:33:58.734Z,98465.72
2023-05-19T13:38:00.852Z,98459.41
2023-05-19T13:42:03.065Z,98460.91
2023-05-19T13:46:05.989Z,98455.13
2023-05-19T13:50:08.548Z,98443.50
2023-05-19T13:54:11.606Z,98443.22
2023-05-19T13:58:15.036Z,98432.91
2023-05-19T14:02:17.295Z,98422.88
2023-05-19T14:06:19.721Z,98418.94
2023-05-19T14:10:22.186Z,98425.53
2023-05-19T14:14:25.049Z,98411.84
2023-05-19T14:18:27.331Z,98418.34
2023-05-19T14:22:29.474Z,98416.56
2023-05-19T14:26:31.619Z,98409.25
2023-05-19T14:30:34.353Z,98397.78
2023-05-19T14:34:37.270Z,98399.34
2023-05-19T14:38:39.355Z,98391.53
2023-05-19T14:42:41.557Z,98387.69
2023-05-19T14:46:43.961Z,98391.38
2023-05-19T14:50:48.494Z,98391.53
2023-05-19T14:54:50.562Z,98388.41
2023-05-19T14:58:52.679Z,98386.09
2023-05-19T15:02:55.129Z,98389.81
2023-05-19T15:11:08.266Z,98387.78
2023-05-19T15:15:12.492Z,98395.22
2023-05-19T15:19:14.744Z,98399.88
2023-05-19T15:23:16.950Z,98396.34
2023-05-19T15:27:19.189Z,98404.13
2023-05-19T15:31:22.453Z,98393.97
2023-05-19T15:35:24.594Z,98398.63
2023-05-19T15:39:27.075Z,98391.28
2023-05-19T15:43:29.266Z,98389.69
2023-05-19T15:47:31.552Z,98390.50
2023-05-19T15:51:34.250Z,98387.00
2023-05-19T15:55:36.359Z,98388.41
2023-05-19T15:59:38.771Z,98389.22
2023-05-19T16:03:41.001Z,98376.88
2023-05-19T16:07:43.233Z,98379.84
2023-05-19T16:11:45.484Z,98380.22
2023-05-19T16:15:48.048Z,98374.50
2023-05-19T16:19:50.179Z,98385.25
2023-05-19T16:23:52.397Z,98385.09
2023-05-19T16:27:55.074Z,98372.41
2023-05-19T16:31:57.167Z,98368.13
2023-05-19T16:36:00.307Z,98352.69
2023-05-19T16:40:03.056Z,98356.88
2023-05-19T16:44:05.604Z,98358.59
2023-05-19T16:48:07.983Z,98369.81
2023-05-19T16:52:10.890Z,98372.19
2023-05-19T16:56:13.171Z,98377.16
2023-05-19T17:00:16.046Z,98391.63
2023-05-19T17:04:18.474Z,98392.59
2023-05-19T17:08:20.617Z,98385.31
2023-05-19T17:12:23.237Z,98387.34
2023-05-19T17:16:25.430Z,98389.97
2023-05-19T17:20:27.625Z,98393.91
2023-05-19T17:24:29.835Z,98381.56
2023-05-19T17:28:32.490Z,98382.78
2023-05-19T17:32:38.770Z,98381.16
2023-05-19T17:36:41.268Z,98373.72
2023-05-19T17:40:43.380Z,98370.06
2023-05-19T17:44:46.576Z,98356.16
2023-05-19T17:48:49.110Z,98350.84
2023-05-19T17:52:51.730Z,98339.13
2023-05-19T17:56:58.082Z,98343.19
2023-05-19T18:01:01.630Z,98331.16
2023-05-19T18:05:05.422Z,98317.41
2023-05-19T18:09:11.138Z,98316.16
2023-05-19T18:13:16.012Z,98317.13
2023-05-19T18:17:18.116Z,98320.44
2023-05-19T18:21:20.815Z,98330.16
2023-05-19T18:25:22.946Z,98333.03
2023-05-19T18:29:25.084Z,98332.75
2023-05-19T18:33:28.694Z,98335.53
2023-05-19T18:37:33.364Z,98349.81
2023-05-19T18:41:37.744Z,98343.66
2023-05-19T18:45:40.223Z,98351.22
2023-05-19T18:49:42.863Z,98337.13
2023-05-19T18:53:48.656Z,98341.09
2023-05-19T18:57:52.384Z,98336.22
2023-05-19T19:01:56.456Z,98337.00
2023-05-19T19:06:00.124Z,98349.44
2023-05-19T19:10:04.471Z,98343.06
2023-05-19T19:14:07.045Z,98355.47
2023-05-19T19:18:09.836Z,98342.78
2023-05-19T19:22:12.959Z,98346.75
2023-05-19T19:26:16.222Z,98348.84
2023-05-19T19:30:18.713Z,98352.31
2023-05-19T19:34:21.223Z,98358.38
2023-05-19T19:38:23.753Z,98363.44
2023-05-19T19:42:26.069Z,98359.38
2023-05-19T19:46:28.317Z,98371.50
2023-05-19T19:50:31.394Z,98364.75
2023-05-19T19:54:33.721Z,98374.88
2023-05-19T19:58:36.775Z,98375.97
2023-05-19T20:02:55.317Z,98369.50
2023-05-19T20:07:05.900Z,98368.72
2023-05-19T20:11:08.235Z,98375.66
2023-05-19T20:15:11.294Z,98376.44
2023-05-19T20:19:13.566Z,98371.31
2023-05-19T20:23:16.395Z,98366.81
2023-05-19T20:27:18.953Z,98372.56
2023-05-19T20:31:23.644Z,98375.94
2023-05-19T20:35:26.295Z,98385.28
2023-05-19T20:39:28.497Z,98380.13
2023-05-19T20:43:32.161Z,98378.22
2023-05-19T20:47:34.666Z,98392.38
2023-05-19T20:51:37.425Z,98390.59
2023-05-19T20:55:39.588Z,98399.00
2023-05-19T20:59:42.187Z,98401.31
2023-05-19T21:03:44.968Z,98401.91
2023-05-19T21:07:47.457Z,98407.69
2023-05-19T21:11:49.723Z,98413.63
2023-05-19T21:15:51.957Z,98405.28
2023-05-19T21:19:58.280Z,98407.47
2023-05-19T21:24:00.923Z,98416.50
2023-05-19T21:28:03.544Z,98426.75
2023-05-19T21:32:06.247Z,98428.09
2023-05-19T21:36:08.688Z,98431.25
2023-05-19T21:40:11.237Z,98423.81
2023-05-19T21:44:13.554Z,98417.09
2023-05-19T21:48:16.152Z,98412.34
2023-05-19T21:52:19.227Z,98422.41
2023-05-19T21:56:22.762Z,98416.88
2023-05-19T22:00:26.180Z,98418.09
2023-05-19T22:04:32.523Z,98400.34
2023-05-19T22:08:35.370Z,98395.72
2023-05-19T22:12:37.470Z,98385.38
2023-05-19T22:16:40.048Z,98395.06
2023-05-19T22:20:42.904Z,98399.41
2023-05-19T22:24:45.062Z,98408.81
2023-05-19T22:28:47.206Z,98416.28
2023-05-19T22:32:49.719Z,98416.75
2023-05-19T22:36:51.873Z,98413.00
2023-05-19T22:40:54.177Z,98398.03
2023-05-19T22:44:56.483Z,98396.28
2023-05-19T22:48:58.606Z,98394.59
2023-05-19T22:53:00.983Z,98400.53
2023-05-19T22:57:03.573Z,98399.63
2023-05-19T23:01:06.051Z,98410.06
2023-05-19T23:05:12.279Z,98412.69
2023-05-19T23:09:18.051Z,98405.25
2023-05-19T23:13:20.251Z,98390.69
2023-05-19T23:17:22.768Z,98386.88
2023-05-19T23:21:25.016Z,98391.84
2023-05-19T23:25:27.570Z,98389.75
2023-05-19T23:29:29.776Z,98385.72
2023-05-19T23:33:31.852Z,98388.34
2023-05-19T23:37:33.961Z,98385.81
2023-05-19T23:41:36.798Z,98388.69
2023-05-19T23:45:38.958Z,98379.47
2023-05-19T23:49:41.116Z,98382.97
2023-05-19T23:53:43.556Z,98384.56
2023-05-19T23:57:46.055Z,98378.72
